sensor_id;sensor_type;location;lat;lon;timestamp;temperature;humidity
4411;DHT22;2218;51.408;7.208;2023-03-24T00:00:47;19.60;43.30
4411;DHT22;2218;51.408;7.208;2023-03-24T00:03:14;19.50;43.30
4411;DHT22;2218;51.408;7.208;2023-03-24T00:05:42;19.50;43.30
4411;DHT22;2218;51.408;7.208;2023-03-24T00:08:09;19.50;43.30
4411;DHT22;2218;51.408;7.208;2023-03-24T00:10:38;19.60;43.40
4411;DHT22;2218;51.408;7.208;2023-03-24T00:13:07;19.60;43.50
4411;DHT22;2218;51.408;7.208;2023-03-24T00:15:34;19.50;43.40
4411;DHT22;2218;51.408;7.208;2023-03-24T00:18:01;19.50;43.50
4411;DHT22;2218;51.408;7.208;2023-03-24T00:20:28;19.50;43.50
4411;DHT22;2218;51.408;7.208;2023-03-24T00:22:57;19.50;43.50
4411;DHT22;2218;51.408;7.208;2023-03-24T00:25:27;19.50;43.60
4411;DHT22;2218;51.408;7.208;2023-03-24T00:27:59;19.50;43.60
4411;DHT22;2218;51.408;7.208;2023-03-24T00:30:28;19.50;43.60
4411;DHT22;2218;51.408;7.208;2023-03-24T00:32:55;19.50;43.70
4411;DHT22;2218;51.408;7.208;2023-03-24T00:35:23;19.50;43.70
4411;DHT22;2218;51.408;7.208;2023-03-24T00:37:50;19.50;43.70
4411;DHT22;2218;51.408;7.208;2023-03-24T00:40:18;19.50;43.70
4411;DHT22;2218;51.408;7.208;2023-03-24T00:42:48;19.50;43.80
4411;DHT22;2218;51.408;7.208;2023-03-24T00:45:19;19.50;43.80
4411;DHT22;2218;51.408;7.208;2023-03-24T00:47:48;19.50;43.80
4411;DHT22;2218;51.408;7.208;2023-03-24T00:50:19;19.50;43.90
4411;DHT22;2218;51.408;7.208;2023-03-24T00:52:51;19.50;43.90
4411;DHT22;2218;51.408;7.208;2023-03-24T00:55:18;19.50;43.90
4411;DHT22;2218;51.408;7.208;2023-03-24T00:57:46;19.50;44.00
4411;DHT22;2218;51.408;7.208;2023-03-24T01:00:18;19.50;44.00
4411;DHT22;2218;51.408;7.208;2023-03-24T01:02:48;19.50;44.00
4411;DHT22;2218;51.408;7.208;2023-03-24T01:05:18;19.50;44.00
4411;DHT22;2218;51.408;7.208;2023-03-24T01:07:47;19.50;44.10
4411;DHT22;2218;51.408;7.208;2023-03-24T01:10:18;19.50;44.10
4411;DHT22;2218;51.408;7.208;2023-03-24T01:12:51;19.50;44.10
4411;DHT22;2218;51.408;7.208;2023-03-24T01:15:23;19.50;44.10
4411;DHT22;2218;51.408;7.208;2023-03-24T01:17:54;19.50;44.20
4411;DHT22;2218;51.408;7.208;2023-03-24T01:20:22;19.50;44.20
4411;DHT22;2218;51.408;7.208;2023-03-24T01:22:50;19.50;44.20
4411;DHT22;2218;51.408;7.208;2023-03-24T01:25:19;19.50;44.20
4411;DHT22;2218;51.408;7.208;2023-03-24T01:27:49;19.50;44.30
4411;DHT22;2218;51.408;7.208;2023-03-24T01:30:19;19.40;44.20
4411;DHT22;2218;51.408;7.208;2023-03-24T01:32:50;19.50;44.30
4411;DHT22;2218;51.408;7.208;2023-03-24T01:35:18;19.40;44.30
4411;DHT22;2218;51.408;7.208;2023-03-24T01:37:46;19.50;44.40
4411;DHT22;2218;51.408;7.208;2023-03-24T01:40:17;19.40;44.30
4411;DHT22;2218;51.408;7.208;2023-03-24T01:42:46;19.40;44.30
4411;DHT22;2218;51.408;7.208;2023-03-24T01:45:44;19.40;44.40
4411;DHT22;2218;51.408;7.208;2023-03-24T01:48:24;19.40;44.40
4411;DHT22;2218;51.408;7.208;2023-03-24T01:50:58;19.40;44.40
4411;DHT22;2218;51.408;7.208;2023-03-24T01:53:28;19.40;44.50
4411;DHT22;2218;51.408;7.208;2023-03-24T01:55:58;19.40;44.50
4411;DHT22;2218;51.408;7.208;2023-03-24T01:58:35;19.40;44.50
4411;DHT22;2218;51.408;7.208;2023-03-24T02:01:25;19.40;44.50
4411;DHT22;2218;51.408;7.208;2023-03-24T02:04:04;19.40;44.50
4411;DHT22;2218;51.408;7.208;2023-03-24T02:06:37;19.40;44.60
4411;DHT22;2218;51.408;7.208;2023-03-24T02:09:10;19.40;44.60
4411;DHT22;2218;51.408;7.208;2023-03-24T02:11:39;19.40;44.60
4411;DHT22;2218;51.408;7.208;2023-03-24T02:14:07;19.40;44.70
4411;DHT22;2218;51.408;7.208;2023-03-24T02:16:50;19.40;44.70
4411;DHT22;2218;51.408;7.208;2023-03-24T02:20:09;19.40;44.70
4411;DHT22;2218;51.408;7.208;2023-03-24T02:26:49;19.40;44.80
4411;DHT22;2218;51.408;7.208;2023-03-24T02:33:09;19.40;44.90
4411;DHT22;2218;51.408;7.208;2023-03-24T02:36:11;19.40;44.90
4411;DHT22;2218;51.408;7.208;2023-03-24T02:39:30;19.40;45.00
4411;DHT22;2218;51.408;7.208;2023-03-24T02:42:12;19.30;44.90
4411;DHT22;2218;51.408;7.208;2023-03-24T02:44:55;19.40;45.00
4411;DHT22;2218;51.408;7.208;2023-03-24T02:47:39;19.40;45.00
4411;DHT22;2218;51.408;7.208;2023-03-24T02:50:17;19.40;45.00
4411;DHT22;2218;51.408;7.208;2023-03-24T02:52:58;19.40;45.10
4411;DHT22;2218;51.408;7.208;2023-03-24T02:55:42;19.40;45.10
4411;DHT22;2218;51.408;7.208;2023-03-24T02:58:21;19.40;45.10
4411;DHT22;2218;51.408;7.208;2023-03-24T03:01:02;19.40;45.10
4411;DHT22;2218;51.408;7.208;2023-03-24T03:03:52;19.30;45.10
4411;DHT22;2218;51.408;7.208;2023-03-24T03:06:26;19.30;45.10
4411;DHT22;2218;51.408;7.208;2023-03-24T03:08:58;19.40;45.30
4411;DHT22;2218;51.408;7.208;2023-03-24T03:11:33;19.30;45.20
4411;DHT22;2218;51.408;7.208;2023-03-24T03:14:04;19.40;45.30
4411;DHT22;2218;51.408;7.208;2023-03-24T03:16:38;19.30;45.20
4411;DHT22;2218;51.408;7.208;2023-03-24T03:19:14;19.30;45.30
4411;DHT22;2218;51.408;7.208;2023-03-24T03:21:47;19.30;45.30
4411;DHT22;2218;51.408;7.208;2023-03-24T03:24:18;19.30;45.30
4411;DHT22;2218;51.408;7.208;2023-03-24T03:26:55;19.30;45.30
4411;DHT22;2218;51.408;7.208;2023-03-24T03:29:28;19.30;45.40
4411;DHT22;2218;51.408;7.208;2023-03-24T03:32:04;19.30;45.30
4411;DHT22;2218;51.408;7.208;2023-03-24T03:34:39;19.30;45.30
4411;DHT22;2218;51.408;7.208;2023-03-24T03:37:19;19.30;45.30
4411;DHT22;2218;51.408;7.208;2023-03-24T03:39:54;19.30;45.30
4411;DHT22;2218;51.408;7.208;2023-03-24T03:42:25;19.30;45.30
4411;DHT22;2218;51.408;7.208;2023-03-24T03:44:53;19.30;45.30
4411;DHT22;2218;51.408;7.208;2023-03-24T03:47:20;19.30;45.40
4411;DHT22;2218;51.408;7.208;2023-03-24T03:49:49;19.40;45.50
4411;DHT22;2218;51.408;7.208;2023-03-24T03:52:17;19.40;45.50
4411;DHT22;2218;51.408;7.208;2023-03-24T03:54:46;19.40;45.50
4411;DHT22;2218;51.408;7.208;2023-03-24T03:57:15;19.40;45.50
4411;DHT22;2218;51.408;7.208;2023-03-24T04:00:08;19.40;45.50
4411;DHT22;2218;51.408;7.208;2023-03-24T04:02:54;19.40;45.50
4411;DHT22;2218;51.408;7.208;2023-03-24T04:05:32;19.40;45.60
4411;DHT22;2218;51.408;7.208;2023-03-24T04:08:17;19.40;45.50
4411;DHT22;2218;51.408;7.208;2023-03-24T04:11:17;19.40;45.50
4411;DHT22;2218;51.408;7.208;2023-03-24T04:21:46;19.40;45.60
4411;DHT22;2218;51.408;7.208;2023-03-24T04:24:34;19.40;45.60
4411;DHT22;2218;51.408;7.208;2023-03-24T04:27:12;19.40;45.60
4411;DHT22;2218;51.408;7.208;2023-03-24T04:29:57;19.40;45.60
4411;DHT22;2218;51.408;7.208;2023-03-24T04:32:39;19.40;45.70
4411;DHT22;2218;51.408;7.208;2023-03-24T04:35:18;19.40;45.70
4411;DHT22;2218;51.408;7.208;2023-03-24T04:38:18;19.40;45.70
4411;DHT22;2218;51.408;7.208;2023-03-24T04:40:59;19.40;45.70
4411;DHT22;2218;51.408;7.208;2023-03-24T04:43:29;19.40;45.80
4411;DHT22;2218;51.408;7.208;2023-03-24T04:46:02;19.40;45.80
4411;DHT22;2218;51.408;7.208;2023-03-24T04:48:39;19.40;45.80
4411;DHT22;2218;51.408;7.208;2023-03-24T04:51:16;19.40;45.80
4411;DHT22;2218;51.408;7.208;2023-03-24T04:53:54;19.40;45.80
4411;DHT22;2218;51.408;7.208;2023-03-24T04:56:38;19.40;45.80
4411;DHT22;2218;51.408;7.208;2023-03-24T04:59:16;19.40;45.80
4411;DHT22;2218;51.408;7.208;2023-03-24T05:01:44;19.40;45.90
4411;DHT22;2218;51.408;7.208;2023-03-24T05:04:34;19.40;45.90
4411;DHT22;2218;51.408;7.208;2023-03-24T05:07:12;19.40;46.00
4411;DHT22;2218;51.408;7.208;2023-03-24T05:09:43;19.40;46.00
4411;DHT22;2218;51.408;7.208;2023-03-24T05:12:10;19.40;46.10
4411;DHT22;2218;51.408;7.208;2023-03-24T05:15:11;19.40;46.20
4411;DHT22;2218;51.408;7.208;2023-03-24T05:17:39;19.40;46.30
4411;DHT22;2218;51.408;7.208;2023-03-24T05:20:07;19.50;46.50
4411;DHT22;2218;51.408;7.208;2023-03-24T05:22:38;19.50;46.40
4411;DHT22;2218;51.408;7.208;2023-03-24T05:25:06;19.50;46.50
4411;DHT22;2218;51.408;7.208;2023-03-24T05:27:34;19.50;46.50
4411;DHT22;2218;51.408;7.208;2023-03-24T05:30:14;19.50;46.40
4411;DHT22;2218;51.408;7.208;2023-03-24T05:32:45;19.60;46.40
4411;DHT22;2218;51.408;7.208;2023-03-24T05:35:12;19.60;46.30
4411;DHT22;2218;51.408;7.208;2023-03-24T05:37:41;19.60;46.30
4411;DHT22;2218;51.408;7.208;2023-03-24T05:40:09;19.60;46.30
4411;DHT22;2218;51.408;7.208;2023-03-24T05:42:50;19.70;46.30
4411;DHT22;2218;51.408;7.208;2023-03-24T05:45:19;19.70;46.20
4411;DHT22;2218;51.408;7.208;2023-03-24T05:47:46;19.70;46.20
4411;DHT22;2218;51.408;7.208;2023-03-24T05:50:15;19.70;46.20
4411;DHT22;2218;51.408;7.208;2023-03-24T05:52:44;19.70;46.20
4411;DHT22;2218;51.408;7.208;2023-03-24T05:55:30;19.70;46.20
4411;DHT22;2218;51.408;7.208;2023-03-24T05:58:07;19.70;46.20
4411;DHT22;2218;51.408;7.208;2023-03-24T06:00:43;19.70;46.20
4411;DHT22;2218;51.408;7.208;2023-03-24T06:03:17;19.70;46.20
4411;DHT22;2218;51.408;7.208;2023-03-24T06:05:54;19.80;46.30
4411;DHT22;2218;51.408;7.208;2023-03-24T06:08:22;19.70;46.20
4411;DHT22;2218;51.408;7.208;2023-03-24T06:10:49;19.70;46.20
4411;DHT22;2218;51.408;7.208;2023-03-24T06:13:18;19.70;46.10
4411;DHT22;2218;51.408;7.208;2023-03-24T06:15:46;19.70;46.10
4411;DHT22;2218;51.408;7.208;2023-03-24T06:18:36;19.80;46.10
4411;DHT22;2218;51.408;7.208;2023-03-24T06:21:13;19.80;46.10
4411;DHT22;2218;51.408;7.208;2023-03-24T06:23:44;19.90;46.00
4411;DHT22;2218;51.408;7.208;2023-03-24T06:26:14;19.90;45.90
4411;DHT22;2218;51.408;7.208;2023-03-24T06:28:56;19.90;45.90
4411;DHT22;2218;51.408;7.208;2023-03-24T06:31:27;19.90;45.80
4411;DHT22;2218;51.408;7.208;2023-03-24T06:33:54;19.90;45.70
4411;DHT22;2218;51.408;7.208;2023-03-24T06:36:21;19.80;45.70
4411;DHT22;2218;51.408;7.208;2023-03-24T06:38:51;19.80;45.50
4411;DHT22;2218;51.408;7.208;2023-03-24T06:41:20;19.80;45.50
4411;DHT22;2218;51.408;7.208;2023-03-24T06:43:52;19.80;45.50
4411;DHT22;2218;51.408;7.208;2023-03-24T06:46:20;19.80;45.40
4411;DHT22;2218;51.408;7.208;2023-03-24T06:48:47;19.80;45.40
4411;DHT22;2218;51.408;7.208;2023-03-24T06:51:14;19.80;45.30
4411;DHT22;2218;51.408;7.208;2023-03-24T06:53:41;19.80;45.20
4411;DHT22;2218;51.408;7.208;2023-03-24T06:56:12;19.80;45.30
4411;DHT22;2218;51.408;7.208;2023-03-24T06:58:44;19.80;45.10
4411;DHT22;2218;51.408;7.208;2023-03-24T07:01:16;19.80;45.10
4411;DHT22;2218;51.408;7.208;2023-03-24T07:03:53;19.80;45.10
4411;DHT22;2218;51.408;7.208;2023-03-24T07:06:39;19.80;45.00
4411;DHT22;2218;51.408;7.208;2023-03-24T07:09:12;19.80;44.90
4411;DHT22;2218;51.408;7.208;2023-03-24T07:11:40;19.80;44.90
4411;DHT22;2218;51.408;7.208;2023-03-24T07:14:07;19.80;44.80
4411;DHT22;2218;51.408;7.208;2023-03-24T07:16:35;19.90;44.90
4411;DHT22;2218;51.408;7.208;2023-03-24T07:19:27;19.90;44.80
4411;DHT22;2218;51.408;7.208;2023-03-24T07:22:12;19.90;44.90
4411;DHT22;2218;51.408;7.208;2023-03-24T07:24:58;19.90;44.90
4411;DHT22;2218;51.408;7.208;2023-03-24T07:27:47;20.00;44.90
4411;DHT22;2218;51.408;7.208;2023-03-24T07:30:14;20.00;45.00
4411;DHT22;2218;51.408;7.208;2023-03-24T07:32:43;20.00;44.90
4411;DHT22;2218;51.408;7.208;2023-03-24T07:35:11;20.00;44.90
4411;DHT22;2218;51.408;7.208;2023-03-24T07:37:38;20.00;44.90
4411;DHT22;2218;51.408;7.208;2023-03-24T07:40:07;20.00;44.80
4411;DHT22;2218;51.408;7.208;2023-03-24T07:42:36;20.00;44.80
4411;DHT22;2218;51.408;7.208;2023-03-24T07:45:25;20.00;44.80
4411;DHT22;2218;51.408;7.208;2023-03-24T07:47:53;20.10;44.80
4411;DHT22;2218;51.408;7.208;2023-03-24T07:50:21;20.10;44.70
4411;DHT22;2218;51.408;7.208;2023-03-24T07:52:49;20.10;44.70
4411;DHT22;2218;51.408;7.208;2023-03-24T07:55:19;20.10;44.70
4411;DHT22;2218;51.408;7.208;2023-03-24T07:57:53;20.10;44.70
4411;DHT22;2218;51.408;7.208;2023-03-24T08:00:24;20.10;44.70
4411;DHT22;2218;51.408;7.208;2023-03-24T08:03:03;20.20;44.70
4411;DHT22;2218;51.408;7.208;2023-03-24T08:06:01;20.10;44.50
4411;DHT22;2218;51.408;7.208;2023-03-24T08:08:31;20.10;44.30
4411;DHT22;2218;51.408;7.208;2023-03-24T08:10:58;20.10;44.30
4411;DHT22;2218;51.408;7.208;2023-03-24T08:13:25;20.10;44.30
4411;DHT22;2218;51.408;7.208;2023-03-24T08:15:53;20.10;44.30
4411;DHT22;2218;51.408;7.208;2023-03-24T08:18:21;20.20;44.40
4411;DHT22;2218;51.408;7.208;2023-03-24T08:20:54;20.10;44.20
4411;DHT22;2218;51.408;7.208;2023-03-24T08:23:24;20.10;44.20
4411;DHT22;2218;51.408;7.208;2023-03-24T08:25:51;20.20;44.40
4411;DHT22;2218;51.408;7.208;2023-03-24T08:28:18;20.10;44.20
4411;DHT22;2218;51.408;7.208;2023-03-24T08:30:46;20.10;44.10
4411;DHT22;2218;51.408;7.208;2023-03-24T08:33:15;20.10;44.10
4411;DHT22;2218;51.408;7.208;2023-03-24T08:35:42;20.10;44.10
4411;DHT22;2218;51.408;7.208;2023-03-24T08:38:11;20.10;44.10
4411;DHT22;2218;51.408;7.208;2023-03-24T08:40:40;20.10;44.00
4411;DHT22;2218;51.408;7.208;2023-03-24T08:43:12;20.10;43.90
4411;DHT22;2218;51.408;7.208;2023-03-24T08:45:44;20.10;43.90
4411;DHT22;2218;51.408;7.208;2023-03-24T08:48:11;20.10;43.80
4411;DHT22;2218;51.408;7.208;2023-03-24T08:50:40;20.20;43.80
4411;DHT22;2218;51.408;7.208;2023-03-24T08:53:08;20.20;43.70
4411;DHT22;2218;51.408;7.208;2023-03-24T08:55:37;20.20;43.60
4411;DHT22;2218;51.408;7.208;2023-03-24T08:58:06;20.10;43.70
4411;DHT22;2218;51.408;7.208;2023-03-24T09:00:33;20.20;43.80
4411;DHT22;2218;51.408;7.208;2023-03-24T09:03:00;20.20;43.80
4411;DHT22;2218;51.408;7.208;2023-03-24T09:05:27;20.20;43.80
4411;DHT22;2218;51.408;7.208;2023-03-24T09:07:56;20.20;43.80
4411;DHT22;2218;51.408;7.208;2023-03-24T09:10:25;20.20;43.80
4411;DHT22;2218;51.408;7.208;2023-03-24T09:12:51;20.20;43.80
4411;DHT22;2218;51.408;7.208;2023-03-24T09:15:18;20.20;43.80
4411;DHT22;2218;51.408;7.208;2023-03-24T09:17:45;20.20;43.80
4411;DHT22;2218;51.408;7.208;2023-03-24T09:20:14;20.20;43.80
4411;DHT22;2218;51.408;7.208;2023-03-24T09:22:42;20.20;43.80
4411;DHT22;2218;51.408;7.208;2023-03-24T09:25:13;20.20;43.80
4411;DHT22;2218;51.408;7.208;2023-03-24T09:27:42;20.20;43.70
4411;DHT22;2218;51.408;7.208;2023-03-24T09:30:10;20.20;43.60
4411;DHT22;2218;51.408;7.208;2023-03-24T09:32:40;20.20;43.60
4411;DHT22;2218;51.408;7.208;2023-03-24T09:35:08;20.20;43.50
4411;DHT22;2218;51.408;7.208;2023-03-24T09:37:37;20.20;43.40
4411;DHT22;2218;51.408;7.208;2023-03-24T09:40:05;20.20;43.40
4411;DHT22;2218;51.408;7.208;2023-03-24T09:42:37;20.20;43.40
4411;DHT22;2218;51.408;7.208;2023-03-24T09:45:12;20.20;43.50
4411;DHT22;2218;51.408;7.208;2023-03-24T09:47:45;20.20;43.40
4411;DHT22;2218;51.408;7.208;2023-03-24T09:50:21;20.20;43.50
4411;DHT22;2218;51.408;7.208;2023-03-24T09:52:53;20.20;43.60
4411;DHT22;2218;51.408;7.208;2023-03-24T09:55:25;20.20;43.70
4411;DHT22;2218;51.408;7.208;2023-03-24T09:57:58;20.20;43.70
4411;DHT22;2218;51.408;7.208;2023-03-24T10:00:33;20.20;43.60
4411;DHT22;2218;51.408;7.208;2023-03-24T10:03:13;20.20;43.70
4411;DHT22;2218;51.408;7.208;2023-03-24T10:05:50;20.20;43.70
4411;DHT22;2218;51.408;7.208;2023-03-24T10:08:25;20.20;43.70
4411;DHT22;2218;51.408;7.208;2023-03-24T10:11:01;20.20;43.70
4411;DHT22;2218;51.408;7.208;2023-03-24T10:13:46;20.20;43.70
4411;DHT22;2218;51.408;7.208;2023-03-24T10:16:27;20.20;43.70
4411;DHT22;2218;51.408;7.208;2023-03-24T10:19:03;20.20;43.70
4411;DHT22;2218;51.408;7.208;2023-03-24T10:21:51;20.20;43.70
4411;DHT22;2218;51.408;7.208;2023-03-24T10:24:28;20.20;43.70
4411;DHT22;2218;51.408;7.208;2023-03-24T10:27:06;20.20;43.60
4411;DHT22;2218;51.408;7.208;2023-03-24T10:29:42;20.20;43.60
4411;DHT22;2218;51.408;7.208;2023-03-24T10:32:15;20.20;43.40
4411;DHT22;2218;51.408;7.208;2023-03-24T10:34:48;20.20;43.60
4411;DHT22;2218;51.408;7.208;2023-03-24T10:37:22;20.20;43.50
4411;DHT22;2218;51.408;7.208;2023-03-24T10:39:50;20.20;43.30
4411;DHT22;2218;51.408;7.208;2023-03-24T10:42:18;20.20;43.20
4411;DHT22;2218;51.408;7.208;2023-03-24T10:44:52;20.20;43.10
4411;DHT22;2218;51.408;7.208;2023-03-24T10:47:24;20.20;43.20
4411;DHT22;2218;51.408;7.208;2023-03-24T10:49:54;20.20;43.20
4411;DHT22;2218;51.408;7.208;2023-03-24T10:52:24;20.20;43.10
4411;DHT22;2218;51.408;7.208;2023-03-24T10:54:55;20.20;43.20
4411;DHT22;2218;51.408;7.208;2023-03-24T10:57:25;20.20;43.10
4411;DHT22;2218;51.408;7.208;2023-03-24T10:59:56;20.20;43.20
4411;DHT22;2218;51.408;7.208;2023-03-24T11:02:29;20.20;43.20
4411;DHT22;2218;51.408;7.208;2023-03-24T11:04:58;20.20;43.20
4411;DHT22;2218;51.408;7.208;2023-03-24T11:07:29;20.20;43.10
4411;DHT22;2218;51.408;7.208;2023-03-24T11:10:03;20.20;43.00
4411;DHT22;2218;51.408;7.208;2023-03-24T11:12:33;20.20;43.00
4411;DHT22;2218;51.408;7.208;2023-03-24T11:15:15;20.20;42.90
4411;DHT22;2218;51.408;7.208;2023-03-24T11:17:44;20.20;43.00
4411;DHT22;2218;51.408;7.208;2023-03-24T11:20:16;20.20;43.10
4411;DHT22;2218;51.408;7.208;2023-03-24T11:22:55;20.20;42.80
4411;DHT22;2218;51.408;7.208;2023-03-24T11:25:25;20.20;42.90
4411;DHT22;2218;51.408;7.208;2023-03-24T11:27:58;20.20;42.90
4411;DHT22;2218;51.408;7.208;2023-03-24T11:30:32;20.20;42.80
4411;DHT22;2218;51.408;7.208;2023-03-24T11:33:01;20.20;42.80
4411;DHT22;2218;51.408;7.208;2023-03-24T11:35:30;20.20;42.70
4411;DHT22;2218;51.408;7.208;2023-03-24T11:38:03;20.20;42.90
4411;DHT22;2218;51.408;7.208;2023-03-24T11:40:31;20.20;42.90
4411;DHT22;2218;51.408;7.208;2023-03-24T11:43:00;20.20;42.90
4411;DHT22;2218;51.408;7.208;2023-03-24T11:45:37;20.20;42.90
4411;DHT22;2218;51.408;7.208;2023-03-24T11:48:15;20.20;43.00
4411;DHT22;2218;51.408;7.208;2023-03-24T11:50:52;20.20;42.90
4411;DHT22;2218;51.408;7.208;2023-03-24T11:53:24;20.20;42.90
4411;DHT22;2218;51.408;7.208;2023-03-24T11:56:00;20.20;42.90
4411;DHT22;2218;51.408;7.208;2023-03-24T11:58:36;20.20;42.90
4411;DHT22;2218;51.408;7.208;2023-03-24T12:01:15;20.20;42.90
4411;DHT22;2218;51.408;7.208;2023-03-24T12:04:02;20.20;42.80
4411;DHT22;2218;51.408;7.208;2023-03-24T12:06:49;20.20;42.80
4411;DHT22;2218;51.408;7.208;2023-03-24T12:09:36;20.20;42.80
4411;DHT22;2218;51.408;7.208;2023-03-24T12:12:19;20.20;42.90
4411;DHT22;2218;51.408;7.208;2023-03-24T12:15:06;20.20;42.80
4411;DHT22;2218;51.408;7.208;2023-03-24T12:17:50;20.20;42.80
4411;DHT22;2218;51.408;7.208;2023-03-24T12:20:27;20.20;42.80
4411;DHT22;2218;51.408;7.208;2023-03-24T12:22:59;20.20;42.80
4411;DHT22;2218;51.408;7.208;2023-03-24T12:26:05;20.20;42.70
4411;DHT22;2218;51.408;7.208;2023-03-24T12:28:52;20.20;42.70
4411;DHT22;2218;51.408;7.208;2023-03-24T12:31:43;20.20;42.70
4411;DHT22;2218;51.408;7.208;2023-03-24T12:34:37;20.20;42.70
4411;DHT22;2218;51.408;7.208;2023-03-24T12:37:24;20.20;42.60
4411;DHT22;2218;51.408;7.208;2023-03-24T12:40:10;20.20;42.60
4411;DHT22;2218;51.408;7.208;2023-03-24T12:43:09;20.20;42.60
4411;DHT22;2218;51.408;7.208;2023-03-24T12:45:48;20.20;42.60
4411;DHT22;2218;51.408;7.208;2023-03-24T12:48:28;20.20;42.50
4411;DHT22;2218;51.408;7.208;2023-03-24T12:51:17;20.20;42.50
4411;DHT22;2218;51.408;7.208;2023-03-24T12:54:00;20.20;42.40
4411;DHT22;2218;51.408;7.208;2023-03-24T12:56:42;20.20;42.40
4411;DHT22;2218;51.408;7.208;2023-03-24T12:59:17;20.20;42.40
4411;DHT22;2218;51.408;7.208;2023-03-24T13:01:57;20.20;42.40
4411;DHT22;2218;51.408;7.208;2023-03-24T13:04:31;20.20;42.50
4411;DHT22;2218;51.408;7.208;2023-03-24T13:07:05;20.20;42.50
4411;DHT22;2218;51.408;7.208;2023-03-24T13:09:41;20.20;42.50
4411;DHT22;2218;51.408;7.208;2023-03-24T13:12:20;20.20;42.40
4411;DHT22;2218;51.408;7.208;2023-03-24T13:14:56;20.20;42.50
4411;DHT22;2218;51.408;7.208;2023-03-24T13:17:31;20.20;42.40
4411;DHT22;2218;51.408;7.208;2023-03-24T13:20:04;20.20;42.40
4411;DHT22;2218;51.408;7.208;2023-03-24T13:22:40;20.20;42.30
4411;DHT22;2218;51.408;7.208;2023-03-24T13:25:19;20.20;42.40
4411;DHT22;2218;51.408;7.208;2023-03-24T13:27:56;20.20;42.40
4411;DHT22;2218;51.408;7.208;2023-03-24T13:30:33;20.20;42.40
4411;DHT22;2218;51.408;7.208;2023-03-24T13:33:06;20.20;42.40
4411;DHT22;2218;51.408;7.208;2023-03-24T13:35:56;20.20;42.40
4411;DHT22;2218;51.408;7.208;2023-03-24T13:38:38;20.20;42.30
4411;DHT22;2218;51.408;7.208;2023-03-24T13:41:11;20.20;42.40
4411;DHT22;2218;51.408;7.208;2023-03-24T13:43:46;20.20;42.40
4411;DHT22;2218;51.408;7.208;2023-03-24T13:46:16;20.20;42.30
4411;DHT22;2218;51.408;7.208;2023-03-24T13:48:45;20.20;42.30
4411;DHT22;2218;51.408;7.208;2023-03-24T13:51:20;20.20;42.30
4411;DHT22;2218;51.408;7.208;2023-03-24T13:53:54;20.20;42.30
4411;DHT22;2218;51.408;7.208;2023-03-24T13:56:27;20.20;42.20
4411;DHT22;2218;51.408;7.208;2023-03-24T14:02:17;20.20;42.30
4411;DHT22;2218;51.408;7.208;2023-03-24T14:04:48;20.20;42.20
4411;DHT22;2218;51.408;7.208;2023-03-24T14:07:31;20.20;42.20
4411;DHT22;2218;51.408;7.208;2023-03-24T14:10:29;20.20;42.20
4411;DHT22;2218;51.408;7.208;2023-03-24T14:13:06;20.20;42.10
4411;DHT22;2218;51.408;7.208;2023-03-24T14:15:48;20.30;42.10
4411;DHT22;2218;51.408;7.208;2023-03-24T14:18:40;20.30;42.00
4411;DHT22;2218;51.408;7.208;2023-03-24T14:21:09;20.20;41.70
4411;DHT22;2218;51.408;7.208;2023-03-24T14:23:38;20.30;41.90
4411;DHT22;2218;51.408;7.208;2023-03-24T14:26:12;20.20;41.80
4411;DHT22;2218;51.408;7.208;2023-03-24T14:28:41;20.30;41.80
4411;DHT22;2218;51.408;7.208;2023-03-24T14:31:18;20.30;41.90
4411;DHT22;2218;51.408;7.208;2023-03-24T14:34:01;20.20;41.70
4411;DHT22;2218;51.408;7.208;2023-03-24T14:36:36;20.20;41.60
4411;DHT22;2218;51.408;7.208;2023-03-24T14:39:10;20.20;41.50
4411;DHT22;2218;51.408;7.208;2023-03-24T14:41:47;20.20;41.50
4411;DHT22;2218;51.408;7.208;2023-03-24T14:47:21;20.20;41.50
4411;DHT22;2218;51.408;7.208;2023-03-24T14:49:51;20.20;41.30
4411;DHT22;2218;51.408;7.208;2023-03-24T14:52:22;20.30;41.40
4411;DHT22;2218;51.408;7.208;2023-03-24T14:54:54;20.30;41.30
4411;DHT22;2218;51.408;7.208;2023-03-24T14:57:26;20.30;41.40
4411;DHT22;2218;51.408;7.208;2023-03-24T14:59:58;20.30;41.40
4411;DHT22;2218;51.408;7.208;2023-03-24T15:02:38;20.30;41.30
4411;DHT22;2218;51.408;7.208;2023-03-24T15:05:20;20.30;41.40
4411;DHT22;2218;51.408;7.208;2023-03-24T15:08:09;20.20;41.40
4411;DHT22;2218;51.408;7.208;2023-03-24T15:10:44;20.20;41.40
4411;DHT22;2218;51.408;7.208;2023-03-24T15:13:34;20.30;42.10
4411;DHT22;2218;51.408;7.208;2023-03-24T15:16:06;20.20;41.50
4411;DHT22;2218;51.408;7.208;2023-03-24T15:18:46;20.20;41.40
4411;DHT22;2218;51.408;7.208;2023-03-24T15:21:21;20.20;41.50
4411;DHT22;2218;51.408;7.208;2023-03-24T15:23:50;20.20;41.40
4411;DHT22;2218;51.408;7.208;2023-03-24T15:26:19;20.20;41.40
4411;DHT22;2218;51.408;7.208;2023-03-24T15:28:55;20.30;41.40
4411;DHT22;2218;51.408;7.208;2023-03-24T15:31:24;20.20;41.30
4411;DHT22;2218;51.408;7.208;2023-03-24T15:34:03;20.20;41.30
4411;DHT22;2218;51.408;7.208;2023-03-24T15:36:39;20.20;41.40
4411;DHT22;2218;51.408;7.208;2023-03-24T15:39:21;20.30;41.50
4411;DHT22;2218;51.408;7.208;2023-03-24T15:41:51;20.20;41.40
4411;DHT22;2218;51.408;7.208;2023-03-24T15:44:24;20.20;41.50
4411;DHT22;2218;51.408;7.208;2023-03-24T15:46:54;20.20;41.50
4411;DHT22;2218;51.408;7.208;2023-03-24T15:49:25;20.20;41.50
4411;DHT22;2218;51.408;7.208;2023-03-24T15:51:58;20.20;41.50
4411;DHT22;2218;51.408;7.208;2023-03-24T15:54:30;20.20;41.50
4411;DHT22;2218;51.408;7.208;2023-03-24T15:57:12;20.20;41.60
4411;DHT22;2218;51.408;7.208;2023-03-24T15:59:45;20.20;41.60
4411;DHT22;2218;51.408;7.208;2023-03-24T16:02:24;20.20;41.60
4411;DHT22;2218;51.408;7.208;2023-03-24T16:04:58;20.20;41.60
4411;DHT22;2218;51.408;7.208;2023-03-24T16:07:30;20.20;41.60
4411;DHT22;2218;51.408;7.208;2023-03-24T16:10:00;20.20;41.70
4411;DHT22;2218;51.408;7.208;2023-03-24T16:12:32;20.20;41.70
4411;DHT22;2218;51.408;7.208;2023-03-24T16:15:02;20.20;41.70
4411;DHT22;2218;51.408;7.208;2023-03-24T16:17:31;20.20;41.70
4411;DHT22;2218;51.408;7.208;2023-03-24T16:19:58;20.20;41.70
4411;DHT22;2218;51.408;7.208;2023-03-24T16:22:25;20.20;41.80
4411;DHT22;2218;51.408;7.208;2023-03-24T16:24:53;20.20;41.80
4411;DHT22;2218;51.408;7.208;2023-03-24T16:27:20;20.20;41.70
4411;DHT22;2218;51.408;7.208;2023-03-24T16:29:46;20.10;42.20
4411;DHT22;2218;51.408;7.208;2023-03-24T16:32:15;20.10;41.70
4411;DHT22;2218;51.408;7.208;2023-03-24T16:34:42;20.10;41.70
4411;DHT22;2218;51.408;7.208;2023-03-24T16:37:09;20.10;41.80
4411;DHT22;2218;51.408;7.208;2023-03-24T16:39:36;20.10;41.80
4411;DHT22;2218;51.408;7.208;2023-03-24T16:42:03;20.20;41.90
4411;DHT22;2218;51.408;7.208;2023-03-24T16:44:31;20.10;41.80
4411;DHT22;2218;51.408;7.208;2023-03-24T16:46:57;20.10;41.80
4411;DHT22;2218;51.408;7.208;2023-03-24T16:49:26;20.10;41.80
4411;DHT22;2218;51.408;7.208;2023-03-24T16:51:53;20.10;41.90
4411;DHT22;2218;51.408;7.208;2023-03-24T16:54:20;20.20;41.90
4411;DHT22;2218;51.408;7.208;2023-03-24T16:56:48;20.20;41.90
4411;DHT22;2218;51.408;7.208;2023-03-24T16:59:14;20.20;41.90
4411;DHT22;2218;51.408;7.208;2023-03-24T17:01:43;20.10;41.80
4411;DHT22;2218;51.408;7.208;2023-03-24T17:04:14;20.10;41.80
4411;DHT22;2218;51.408;7.208;2023-03-24T17:06:46;20.10;41.80
4411;DHT22;2218;51.408;7.208;2023-03-24T17:09:15;20.20;41.90